Domov               UVHVVR             MKGP            O straneh              
ZDRAVSTVENO VARSTVO RASTLIN
  MREŽA AGROMET. POSTAJ
 ► PROGNOSTIČNA OBVESTILA
AGROMETEOROLOŠKI PODATKI -
ARSO
OBVLADOVANJE TVEGANJ ZARADI
NEUGODNIH VREMENSKIH RAZMER
  ► NARAVNE NESREČE
  ► SUŠA/MOČA
  ► NAMAKANJE
  ► ŽLED (gozdarstvo)
KARTOGRAFSKI PRIKAZI
SPLETNE POVEZAVE
PROJEKTI IN PUBLIKACIJE

AGROMETEOROLOŠKA MREŽA: VREMENSKE POSTAJE IN FENOLOŠKA OPAZOVANJA

Pregled podatkov za lokacijo Zbigovci, meteorološka postaja 25164

Pregled senzorjev na lokaciji

ID Ime Zadnja
vrednost
Datum
zadnje
spremembe
Tip
senzorja
1931 Omočenost lista (U) 0 U 19.9.2018 05:00 A730WET
1930 Padavine (mm) 0 mm 19.9.2018 05:00 Generic 0.2 mm
1932 Relativna vlaga 2 m (% RH) 87,28 % RH 19.9.2018 05:00 Generic 0 - 100 %
1933 Temperatura 2 m (°C) 13,82 °C 19.9.2018 05:00 Generic -40 - +60 °C

Pregled podatkov zadnjih 24 ur

Zap.
št.
Datum in čas Zbigovci
Omočenost
lista
Padavine Relativna
vlaga
2
m
Temperatura
2
m
1 19.9.2018 06:00
2 19.9.2018 05:30
3 19.9.2018 05:00
4 19.9.2018 04:30
5 19.9.2018 04:00 0 0 87,3 13,8
6 19.9.2018 03:30 0 0 86,3 14,4
7 19.9.2018 03:00 0 0 81,2 14,1
8 19.9.2018 02:30 0 0 85,4 14,2
9 19.9.2018 02:00 0 0 78,7 15,1
10 19.9.2018 01:30 0 0 77,4 15,2
11 19.9.2018 01:00 0 0 81,8 14,8
12 19.9.2018 00:30 0 0 77,6 15,9
13 19.9.2018 00:00 0 0 65,1 17,5
14 18.9.2018 23:30 0 0 58,8 18,3
15 18.9.2018 23:00 0 0 58,4 18,4
16 18.9.2018 22:30 0 0 57,6 18,5
17 18.9.2018 22:00 0 0 60,8 18,3
18 18.9.2018 21:30 0 0 61,5 18,4
19 18.9.2018 21:00 0 0 58,9 19,1
20 18.9.2018 20:30 0 0 55,9 19,5
21 18.9.2018 20:00 0 0 57,7 19,8
22 18.9.2018 19:30 0 0 55,2 20,5
23 18.9.2018 19:00 0 0 54,1 20,7
24 18.9.2018 18:30 0 0 52 21,1
25 18.9.2018 18:00 0 0 50,4 22
26 18.9.2018 17:30 0 0 48 23,2
27 18.9.2018 17:00 0 0 44,8 24,2
28 18.9.2018 16:30 0 0 41,4 24,8
29 18.9.2018 16:00 0 0 39,9 25,5
30 18.9.2018 15:30 0 0 39,3 25,7
31 18.9.2018 15:00 0 0 38,3 25,7
32 18.9.2018 14:30 0 0 38,3 25,6
33 18.9.2018 14:00 0 0 38,4 25,8
34 18.9.2018 13:30 0 0 40,6 25,6
35 18.9.2018 13:00 0 0 37,2 25,6
36 18.9.2018 12:30 0 0 38,4 25,1
37 18.9.2018 12:00 0 0 40,2 24,9
38 18.9.2018 11:30 0 0 43 24,5
39 18.9.2018 11:00 0 0 48,4 23,8
40 18.9.2018 10:30 0 0 53,1 23,2
41 18.9.2018 10:00 0 0 55,6 22,1
42 18.9.2018 09:30 0 0 61,1 21,1
43 18.9.2018 09:00 0 0 69,3 19,4
44 18.9.2018 08:30 0 0 74,9 18,2
45 18.9.2018 08:00 0 0 78,3 17
46 18.9.2018 07:30 6 0 80,4 16,4
47 18.9.2018 07:00 9 0 83,9 14,8
48 18.9.2018 06:30 8 0 99,7 12,8
© 2011 Ministrstvo za kmetijstvo, gozdarstvo in prehrano. Vse pravice pridržane.